sensor_id;sensor_type;location;lat;lon;timestamp;P1;durP1;ratioP1;P2;durP2;ratioP2
1178;SDS011;578;48.408;10.004;2022-12-07T00:01:20;9.07;;;6.13;;
1178;SDS011;578;48.408;10.004;2022-12-07T00:03:48;9.00;;;7.20;;
1178;SDS011;578;48.408;10.004;2022-12-07T00:06:17;10.50;;;7.32;;
1178;SDS011;578;48.408;10.004;2022-12-07T00:08:45;10.48;;;7.18;;
1178;SDS011;578;48.408;10.004;2022-12-07T00:11:13;11.38;;;7.13;;
1178;SDS011;578;48.408;10.004;2022-12-07T00:13:41;9.75;;;6.15;;
1178;SDS011;578;48.408;10.004;2022-12-07T00:16:09;8.73;;;6.35;;
1178;SDS011;578;48.408;10.004;2022-12-07T00:18:39;8.73;;;6.05;;
1178;SDS011;578;48.408;10.004;2022-12-07T00:21:07;11.00;;;6.68;;
1178;SDS011;578;48.408;10.004;2022-12-07T00:23:37;10.93;;;6.55;;
1178;SDS011;578;48.408;10.004;2022-12-07T00:26:05;9.10;;;6.72;;
1178;SDS011;578;48.408;10.004;2022-12-07T00:28:32;7.95;;;6.15;;
1178;SDS011;578;48.408;10.004;2022-12-07T00:31:00;11.73;;;7.22;;
1178;SDS011;578;48.408;10.004;2022-12-07T00:33:30;8.77;;;6.60;;
1178;SDS011;578;48.408;10.004;2022-12-07T00:35:59;9.68;;;6.63;;
1178;SDS011;578;48.408;10.004;2022-12-07T00:38:27;10.75;;;7.82;;
1178;SDS011;578;48.408;10.004;2022-12-07T00:40:55;11.75;;;7.65;;
1178;SDS011;578;48.408;10.004;2022-12-07T00:43:22;11.63;;;7.50;;
1178;SDS011;578;48.408;10.004;2022-12-07T00:45:49;10.40;;;6.97;;
1178;SDS011;578;48.408;10.004;2022-12-07T00:48:16;9.73;;;7.28;;
1178;SDS011;578;48.408;10.004;2022-12-07T00:50:42;9.40;;;7.53;;
1178;SDS011;578;48.408;10.004;2022-12-07T00:53:11;13.02;;;8.00;;
1178;SDS011;578;48.408;10.004;2022-12-07T00:55:38;10.52;;;7.00;;
1178;SDS011;578;48.408;10.004;2022-12-07T00:58:04;9.00;;;6.30;;
1178;SDS011;578;48.408;10.004;2022-12-07T01:00:31;12.82;;;7.57;;
1178;SDS011;578;48.408;10.004;2022-12-07T01:02:59;10.60;;;7.32;;
1178;SDS011;578;48.408;10.004;2022-12-07T01:05:26;10.35;;;6.55;;
1178;SDS011;578;48.408;10.004;2022-12-07T01:07:53;10.38;;;7.30;;
1178;SDS011;578;48.408;10.004;2022-12-07T01:10:21;12.10;;;8.00;;
1178;SDS011;578;48.408;10.004;2022-12-07T01:12:48;11.80;;;7.88;;
1178;SDS011;578;48.408;10.004;2022-12-07T01:15:14;14.90;;;8.52;;
1178;SDS011;578;48.408;10.004;2022-12-07T01:17:41;9.90;;;8.10;;
1178;SDS011;578;48.408;10.004;2022-12-07T01:20:08;9.57;;;7.65;;
1178;SDS011;578;48.408;10.004;2022-12-07T01:22:36;10.70;;;7.72;;
1178;SDS011;578;48.408;10.004;2022-12-07T01:25:03;11.68;;;8.15;;
1178;SDS011;578;48.408;10.004;2022-12-07T01:27:32;11.57;;;7.82;;
1178;SDS011;578;48.408;10.004;2022-12-07T01:29:59;10.90;;;8.20;;
1178;SDS011;578;48.408;10.004;2022-12-07T01:32:25;11.23;;;8.73;;
1178;SDS011;578;48.408;10.004;2022-12-07T01:34:52;10.90;;;7.15;;
1178;SDS011;578;48.408;10.004;2022-12-07T01:37:19;13.30;;;8.80;;
1178;SDS011;578;48.408;10.004;2022-12-07T01:39:48;11.60;;;8.00;;
1178;SDS011;578;48.408;10.004;2022-12-07T01:42:15;11.70;;;7.50;;
1178;SDS011;578;48.408;10.004;2022-12-07T01:48:01;13.43;;;8.55;;
1178;SDS011;578;48.408;10.004;2022-12-07T01:50:28;14.73;;;8.95;;
1178;SDS011;578;48.408;10.004;2022-12-07T01:52:56;12.40;;;7.07;;
1178;SDS011;578;48.408;10.004;2022-12-07T01:55:26;15.07;;;8.05;;
1178;SDS011;578;48.408;10.004;2022-12-07T01:57:53;11.82;;;8.65;;
1178;SDS011;578;48.408;10.004;2022-12-07T02:00:21;15.23;;;9.50;;
1178;SDS011;578;48.408;10.004;2022-12-07T02:02:49;13.88;;;8.38;;
1178;SDS011;578;48.408;10.004;2022-12-07T02:05:20;12.23;;;8.65;;
1178;SDS011;578;48.408;10.004;2022-12-07T02:07:49;14.38;;;8.70;;
1178;SDS011;578;48.408;10.004;2022-12-07T02:10:17;14.63;;;9.27;;
1178;SDS011;578;48.408;10.004;2022-12-07T02:12:47;14.15;;;8.68;;
1178;SDS011;578;48.408;10.004;2022-12-07T02:15:17;15.70;;;9.43;;
1178;SDS011;578;48.408;10.004;2022-12-07T02:17:47;15.27;;;9.25;;
1178;SDS011;578;48.408;10.004;2022-12-07T02:20:25;12.25;;;8.40;;
1178;SDS011;578;48.408;10.004;2022-12-07T02:23:07;14.77;;;8.13;;
1178;SDS011;578;48.408;10.004;2022-12-07T02:26:07;14.10;;;10.10;;
1178;SDS011;578;48.408;10.004;2022-12-07T02:28:55;14.18;;;9.65;;
1178;SDS011;578;48.408;10.004;2022-12-07T02:31:41;13.18;;;8.85;;
1178;SDS011;578;48.408;10.004;2022-12-07T02:34:14;15.55;;;9.20;;
1178;SDS011;578;48.408;10.004;2022-12-07T02:36:52;17.02;;;8.93;;
1178;SDS011;578;48.408;10.004;2022-12-07T02:39:25;15.20;;;9.15;;
1178;SDS011;578;48.408;10.004;2022-12-07T02:42:00;15.82;;;7.65;;
1178;SDS011;578;48.408;10.004;2022-12-07T02:44:30;17.75;;;10.02;;
1178;SDS011;578;48.408;10.004;2022-12-07T02:46:59;15.93;;;10.30;;
1178;SDS011;578;48.408;10.004;2022-12-07T02:49:29;15.15;;;9.05;;
1178;SDS011;578;48.408;10.004;2022-12-07T02:51:57;19.30;;;10.15;;
1178;SDS011;578;48.408;10.004;2022-12-07T02:54:24;18.55;;;9.82;;
1178;SDS011;578;48.408;10.004;2022-12-07T02:56:51;16.75;;;10.57;;
1178;SDS011;578;48.408;10.004;2022-12-07T02:59:25;16.80;;;10.68;;
1178;SDS011;578;48.408;10.004;2022-12-07T03:02:03;18.33;;;9.98;;
1178;SDS011;578;48.408;10.004;2022-12-07T03:04:45;18.90;;;10.88;;
1178;SDS011;578;48.408;10.004;2022-12-07T03:07:18;15.65;;;9.00;;
1178;SDS011;578;48.408;10.004;2022-12-07T03:09:57;15.25;;;9.18;;
1178;SDS011;578;48.408;10.004;2022-12-07T03:12:29;14.75;;;10.13;;
1178;SDS011;578;48.408;10.004;2022-12-07T03:15:03;13.30;;;8.60;;
1178;SDS011;578;48.408;10.004;2022-12-07T03:17:36;17.33;;;10.63;;
1178;SDS011;578;48.408;10.004;2022-12-07T03:20:07;18.08;;;10.13;;
1178;SDS011;578;48.408;10.004;2022-12-07T03:22:37;13.35;;;8.57;;
1178;SDS011;578;48.408;10.004;2022-12-07T03:25:08;16.02;;;10.55;;
1178;SDS011;578;48.408;10.004;2022-12-07T03:27:38;15.30;;;9.77;;
1178;SDS011;578;48.408;10.004;2022-12-07T03:30:09;16.73;;;11.25;;
1178;SDS011;578;48.408;10.004;2022-12-07T03:32:43;17.70;;;9.98;;
1178;SDS011;578;48.408;10.004;2022-12-07T03:35:12;17.52;;;11.07;;
1178;SDS011;578;48.408;10.004;2022-12-07T03:37:45;20.00;;;10.85;;
1178;SDS011;578;48.408;10.004;2022-12-07T03:40:16;14.15;;;9.32;;
1178;SDS011;578;48.408;10.004;2022-12-07T03:42:48;20.05;;;11.98;;
1178;SDS011;578;48.408;10.004;2022-12-07T03:45:16;15.45;;;8.60;;
1178;SDS011;578;48.408;10.004;2022-12-07T03:47:45;16.83;;;10.50;;
1178;SDS011;578;48.408;10.004;2022-12-07T03:50:21;12.27;;;7.50;;
1178;SDS011;578;48.408;10.004;2022-12-07T03:52:54;14.93;;;7.25;;
1178;SDS011;578;48.408;10.004;2022-12-07T03:55:27;14.60;;;9.05;;
1178;SDS011;578;48.408;10.004;2022-12-07T03:57:56;13.30;;;8.25;;
1178;SDS011;578;48.408;10.004;2022-12-07T04:00:27;15.00;;;8.10;;
1178;SDS011;578;48.408;10.004;2022-12-07T04:02:55;15.30;;;8.25;;
1178;SDS011;578;48.408;10.004;2022-12-07T04:05:22;9.32;;;6.93;;
1178;SDS011;578;48.408;10.004;2022-12-07T04:07:49;12.05;;;7.65;;
1178;SDS011;578;48.408;10.004;2022-12-07T04:10:17;13.23;;;7.65;;
1178;SDS011;578;48.408;10.004;2022-12-07T04:12:44;11.27;;;7.68;;
1178;SDS011;578;48.408;10.004;2022-12-07T04:15:10;11.25;;;8.32;;
1178;SDS011;578;48.408;10.004;2022-12-07T04:17:38;11.13;;;7.28;;
1178;SDS011;578;48.408;10.004;2022-12-07T04:20:06;9.30;;;6.97;;
1178;SDS011;578;48.408;10.004;2022-12-07T04:22:34;12.30;;;7.32;;
1178;SDS011;578;48.408;10.004;2022-12-07T04:25:01;11.30;;;7.47;;
1178;SDS011;578;48.408;10.004;2022-12-07T04:27:28;11.50;;;8.15;;
1178;SDS011;578;48.408;10.004;2022-12-07T04:29:54;10.90;;;7.55;;
1178;SDS011;578;48.408;10.004;2022-12-07T04:32:21;11.30;;;8.70;;
1178;SDS011;578;48.408;10.004;2022-12-07T04:34:48;11.45;;;7.28;;
1178;SDS011;578;48.408;10.004;2022-12-07T04:37:16;10.40;;;6.97;;
1178;SDS011;578;48.408;10.004;2022-12-07T04:39:43;10.18;;;7.30;;
1178;SDS011;578;48.408;10.004;2022-12-07T04:42:10;11.73;;;7.90;;
1178;SDS011;578;48.408;10.004;2022-12-07T04:44:37;10.80;;;7.18;;
1178;SDS011;578;48.408;10.004;2022-12-07T04:47:04;12.60;;;8.90;;
1178;SDS011;578;48.408;10.004;2022-12-07T04:49:31;12.93;;;8.13;;
1178;SDS011;578;48.408;10.004;2022-12-07T04:51:58;12.88;;;8.02;;
1178;SDS011;578;48.408;10.004;2022-12-07T04:54:27;14.23;;;8.23;;
1178;SDS011;578;48.408;10.004;2022-12-07T04:56:54;15.40;;;8.88;;
1178;SDS011;578;48.408;10.004;2022-12-07T04:59:20;11.40;;;7.65;;
1178;SDS011;578;48.408;10.004;2022-12-07T05:01:47;14.38;;;9.90;;
1178;SDS011;578;48.408;10.004;2022-12-07T05:04:14;13.13;;;8.07;;
1178;SDS011;578;48.408;10.004;2022-12-07T05:06:42;12.18;;;8.43;;
1178;SDS011;578;48.408;10.004;2022-12-07T05:09:09;11.27;;;8.10;;
1178;SDS011;578;48.408;10.004;2022-12-07T05:11:37;13.85;;;8.93;;
1178;SDS011;578;48.408;10.004;2022-12-07T05:14:05;12.27;;;8.25;;
1178;SDS011;578;48.408;10.004;2022-12-07T05:16:33;10.45;;;7.35;;
1178;SDS011;578;48.408;10.004;2022-12-07T05:19:00;10.80;;;8.13;;
1178;SDS011;578;48.408;10.004;2022-12-07T05:21:26;10.43;;;7.35;;
1178;SDS011;578;48.408;10.004;2022-12-07T05:23:54;13.52;;;7.05;;
1178;SDS011;578;48.408;10.004;2022-12-07T05:26:21;11.50;;;7.47;;
1178;SDS011;578;48.408;10.004;2022-12-07T05:28:51;11.95;;;8.50;;
1178;SDS011;578;48.408;10.004;2022-12-07T05:31:18;10.27;;;7.55;;
1178;SDS011;578;48.408;10.004;2022-12-07T05:33:44;12.38;;;7.95;;
1178;SDS011;578;48.408;10.004;2022-12-07T05:36:11;12.00;;;7.70;;
1178;SDS011;578;48.408;10.004;2022-12-07T05:38:38;10.55;;;6.90;;
1178;SDS011;578;48.408;10.004;2022-12-07T05:41:06;12.05;;;6.50;;
1178;SDS011;578;48.408;10.004;2022-12-07T05:43:55;13.32;;;7.43;;
1178;SDS011;578;48.408;10.004;2022-12-07T05:46:22;11.88;;;6.20;;
1178;SDS011;578;48.408;10.004;2022-12-07T05:48:49;12.02;;;7.15;;
1178;SDS011;578;48.408;10.004;2022-12-07T05:51:15;9.00;;;5.90;;
1178;SDS011;578;48.408;10.004;2022-12-07T05:53:42;8.90;;;6.28;;
1178;SDS011;578;48.408;10.004;2022-12-07T05:56:09;9.07;;;6.53;;
1178;SDS011;578;48.408;10.004;2022-12-07T05:58:36;8.90;;;6.55;;
1178;SDS011;578;48.408;10.004;2022-12-07T06:01:21;10.02;;;6.93;;
1178;SDS011;578;48.408;10.004;2022-12-07T06:03:48;10.30;;;6.35;;
1178;SDS011;578;48.408;10.004;2022-12-07T06:06:15;12.43;;;8.45;;
1178;SDS011;578;48.408;10.004;2022-12-07T06:08:41;10.55;;;6.40;;
1178;SDS011;578;48.408;10.004;2022-12-07T06:11:08;14.52;;;7.22;;
1178;SDS011;578;48.408;10.004;2022-12-07T06:13:53;8.20;;;6.72;;
1178;SDS011;578;48.408;10.004;2022-12-07T06:16:19;9.02;;;6.00;;
1178;SDS011;578;48.408;10.004;2022-12-07T06:18:47;9.68;;;6.97;;
1178;SDS011;578;48.408;10.004;2022-12-07T06:21:14;10.73;;;6.80;;
1178;SDS011;578;48.408;10.004;2022-12-07T06:23:41;11.10;;;6.75;;
1178;SDS011;578;48.408;10.004;2022-12-07T06:26:07;10.27;;;6.30;;
1178;SDS011;578;48.408;10.004;2022-12-07T06:28:34;11.10;;;6.88;;
1178;SDS011;578;48.408;10.004;2022-12-07T06:31:01;9.13;;;6.32;;
1178;SDS011;578;48.408;10.004;2022-12-07T06:33:30;9.45;;;5.93;;
1178;SDS011;578;48.408;10.004;2022-12-07T06:35:56;13.45;;;7.55;;
1178;SDS011;578;48.408;10.004;2022-12-07T06:38:23;15.73;;;7.85;;
1178;SDS011;578;48.408;10.004;2022-12-07T06:40:50;12.25;;;7.22;;
1178;SDS011;578;48.408;10.004;2022-12-07T06:43:17;13.30;;;6.78;;
1178;SDS011;578;48.408;10.004;2022-12-07T06:45:44;14.90;;;8.13;;
1178;SDS011;578;48.408;10.004;2022-12-07T06:48:10;13.85;;;8.40;;
1178;SDS011;578;48.408;10.004;2022-12-07T06:50:38;14.88;;;8.77;;
1178;SDS011;578;48.408;10.004;2022-12-07T06:53:05;13.57;;;7.97;;
1178;SDS011;578;48.408;10.004;2022-12-07T06:55:32;13.30;;;8.90;;
1178;SDS011;578;48.408;10.004;2022-12-07T06:57:58;13.38;;;8.30;;
1178;SDS011;578;48.408;10.004;2022-12-07T07:00:26;11.77;;;7.55;;
1178;SDS011;578;48.408;10.004;2022-12-07T07:02:53;11.75;;;9.02;;
1178;SDS011;578;48.408;10.004;2022-12-07T07:05:20;13.73;;;8.32;;
1178;SDS011;578;48.408;10.004;2022-12-07T07:07:48;14.75;;;8.65;;
1178;SDS011;578;48.408;10.004;2022-12-07T07:10:15;9.63;;;7.60;;
1178;SDS011;578;48.408;10.004;2022-12-07T07:12:42;12.65;;;8.85;;
1178;SDS011;578;48.408;10.004;2022-12-07T07:15:09;11.75;;;7.53;;
1178;SDS011;578;48.408;10.004;2022-12-07T07:17:36;16.33;;;8.57;;
1178;SDS011;578;48.408;10.004;2022-12-07T07:20:04;14.35;;;8.15;;
1178;SDS011;578;48.408;10.004;2022-12-07T07:22:31;17.10;;;9.63;;
1178;SDS011;578;48.408;10.004;2022-12-07T07:24:59;11.68;;;8.73;;
1178;SDS011;578;48.408;10.004;2022-12-07T07:27:26;17.15;;;9.18;;
1178;SDS011;578;48.408;10.004;2022-12-07T07:29:53;13.30;;;7.90;;
1178;SDS011;578;48.408;10.004;2022-12-07T07:32:20;12.10;;;7.95;;
1178;SDS011;578;48.408;10.004;2022-12-07T07:34:47;13.07;;;7.80;;
1178;SDS011;578;48.408;10.004;2022-12-07T07:37:13;8.52;;;5.65;;
1178;SDS011;578;48.408;10.004;2022-12-07T07:39:40;10.10;;;7.13;;
1178;SDS011;578;48.408;10.004;2022-12-07T07:42:08;10.68;;;7.60;;
1178;SDS011;578;48.408;10.004;2022-12-07T07:44:35;9.80;;;6.72;;
1178;SDS011;578;48.408;10.004;2022-12-07T07:47:02;10.85;;;6.90;;
1178;SDS011;578;48.408;10.004;2022-12-07T07:49:29;10.13;;;5.85;;
1178;SDS011;578;48.408;10.004;2022-12-07T07:51:56;11.95;;;7.15;;
1178;SDS011;578;48.408;10.004;2022-12-07T07:54:22;9.98;;;7.15;;
1178;SDS011;578;48.408;10.004;2022-12-07T07:56:49;11.48;;;7.28;;
1178;SDS011;578;48.408;10.004;2022-12-07T07:59:17;10.60;;;6.97;;
1178;SDS011;578;48.408;10.004;2022-12-07T08:01:44;10.18;;;7.72;;
1178;SDS011;578;48.408;10.004;2022-12-07T08:04:11;8.70;;;5.73;;
1178;SDS011;578;48.408;10.004;2022-12-07T08:06:37;10.00;;;5.87;;
1178;SDS011;578;48.408;10.004;2022-12-07T08:09:04;7.97;;;5.93;;
1178;SDS011;578;48.408;10.004;2022-12-07T08:11:31;9.17;;;6.40;;
1178;SDS011;578;48.408;10.004;2022-12-07T08:13:58;9.50;;;6.63;;
1178;SDS011;578;48.408;10.004;2022-12-07T08:16:26;9.27;;;6.63;;
1178;SDS011;578;48.408;10.004;2022-12-07T08:18:53;20.27;;;7.93;;
1178;SDS011;578;48.408;10.004;2022-12-07T08:21:19;10.77;;;6.97;;
1178;SDS011;578;48.408;10.004;2022-12-07T08:23:46;9.60;;;7.15;;
1178;SDS011;578;48.408;10.004;2022-12-07T08:26:13;14.15;;;6.72;;
1178;SDS011;578;48.408;10.004;2022-12-07T08:28:41;9.70;;;6.28;;
1178;SDS011;578;48.408;10.004;2022-12-07T08:31:10;11.57;;;7.18;;
1178;SDS011;578;48.408;10.004;2022-12-07T08:33:40;9.15;;;6.55;;
1178;SDS011;578;48.408;10.004;2022-12-07T08:36:08;14.17;;;6.80;;
1178;SDS011;578;48.408;10.004;2022-12-07T08:38:36;12.40;;;6.95;;
1178;SDS011;578;48.408;10.004;2022-12-07T08:41:03;13.30;;;7.20;;
1178;SDS011;578;48.408;10.004;2022-12-07T08:43:30;8.05;;;5.82;;
1178;SDS011;578;48.408;10.004;2022-12-07T08:46:00;13.18;;;6.57;;
1178;SDS011;578;48.408;10.004;2022-12-07T08:48:31;9.50;;;5.55;;
1178;SDS011;578;48.408;10.004;2022-12-07T08:51:01;10.63;;;6.15;;
1178;SDS011;578;48.408;10.004;2022-12-07T08:53:28;15.68;;;6.32;;
1178;SDS011;578;48.408;10.004;2022-12-07T08:55:56;7.88;;;5.25;;
1178;SDS011;578;48.408;10.004;2022-12-07T08:58:23;9.60;;;5.72;;
1178;SDS011;578;48.408;10.004;2022-12-07T09:00:50;8.05;;;4.72;;
1178;SDS011;578;48.408;10.004;2022-12-07T09:03:17;8.00;;;5.40;;
1178;SDS011;578;48.408;10.004;2022-12-07T09:05:44;10.70;;;5.65;;
1178;SDS011;578;48.408;10.004;2022-12-07T09:08:12;9.60;;;4.78;;
1178;SDS011;578;48.408;10.004;2022-12-07T09:10:39;10.15;;;4.45;;
1178;SDS011;578;48.408;10.004;2022-12-07T09:13:05;3.88;;;3.45;;
1178;SDS011;578;48.408;10.004;2022-12-07T09:15:32;12.30;;;4.73;;
1178;SDS011;578;48.408;10.004;2022-12-07T09:17:59;7.03;;;3.78;;
1178;SDS011;578;48.408;10.004;2022-12-07T09:20:26;6.47;;;4.07;;
1178;SDS011;578;48.408;10.004;2022-12-07T09:22:52;8.07;;;4.03;;
1178;SDS011;578;48.408;10.004;2022-12-07T09:25:20;4.40;;;3.25;;
1178;SDS011;578;48.408;10.004;2022-12-07T09:27:47;6.27;;;4.20;;
1178;SDS011;578;48.408;10.004;2022-12-07T09:30:14;5.65;;;4.22;;
1178;SDS011;578;48.408;10.004;2022-12-07T09:32:41;6.22;;;4.22;;
1178;SDS011;578;48.408;10.004;2022-12-07T09:35:07;8.32;;;4.22;;
1178;SDS011;578;48.408;10.004;2022-12-07T09:37:35;7.25;;;3.80;;
1178;SDS011;578;48.408;10.004;2022-12-07T09:40:02;5.80;;;4.50;;
1178;SDS011;578;48.408;10.004;2022-12-07T09:42:32;5.63;;;3.50;;
1178;SDS011;578;48.408;10.004;2022-12-07T09:45:01;6.60;;;5.00;;
1178;SDS011;578;48.408;10.004;2022-12-07T09:47:31;6.27;;;3.87;;
1178;SDS011;578;48.408;10.004;2022-12-07T09:50:00;6.60;;;4.30;;
1178;SDS011;578;48.408;10.004;2022-12-07T09:52:31;6.03;;;3.95;;
1178;SDS011;578;48.408;10.004;2022-12-07T09:54:58;4.93;;;3.23;;
1178;SDS011;578;48.408;10.004;2022-12-07T09:57:27;4.50;;;3.20;;
1178;SDS011;578;48.408;10.004;2022-12-07T09:59:58;10.63;;;3.30;;
1178;SDS011;578;48.408;10.004;2022-12-07T10:02:32;4.67;;;3.30;;
1178;SDS011;578;48.408;10.004;2022-12-07T10:05:03;8.37;;;3.93;;
1178;SDS011;578;48.408;10.004;2022-12-07T10:07:31;5.82;;;3.60;;
1178;SDS011;578;48.408;10.004;2022-12-07T10:09:58;6.40;;;4.13;;
1178;SDS011;578;48.408;10.004;2022-12-07T10:12:24;6.50;;;3.70;;
1178;SDS011;578;48.408;10.004;2022-12-07T10:14:56;4.90;;;3.20;;
1178;SDS011;578;48.408;10.004;2022-12-07T10:17:32;3.93;;;2.50;;
1178;SDS011;578;48.408;10.004;2022-12-07T10:22:55;4.30;;;3.23;;
1178;SDS011;578;48.408;10.004;2022-12-07T10:25:28;4.23;;;3.00;;
1178;SDS011;578;48.408;10.004;2022-12-07T10:27:58;8.10;;;3.70;;
1178;SDS011;578;48.408;10.004;2022-12-07T10:30:28;5.33;;;3.83;;
1178;SDS011;578;48.408;10.004;2022-12-07T10:32:56;6.37;;;3.77;;
1178;SDS011;578;48.408;10.004;2022-12-07T10:35:24;3.50;;;2.60;;
1178;SDS011;578;48.408;10.004;2022-12-07T10:37:52;3.67;;;3.30;;
1178;SDS011;578;48.408;10.004;2022-12-07T10:40:31;7.10;;;2.70;;
1178;SDS011;578;48.408;10.004;2022-12-07T10:43:06;3.90;;;2.77;;
1178;SDS011;578;48.408;10.004;2022-12-07T10:45:54;4.37;;;3.00;;
1178;SDS011;578;48.408;10.004;2022-12-07T10:48:36;3.70;;;2.50;;
1178;SDS011;578;48.408;10.004;2022-12-07T10:51:12;4.33;;;3.10;;
1178;SDS011;578;48.408;10.004;2022-12-07T10:53:48;4.20;;;2.53;;
1178;SDS011;578;48.408;10.004;2022-12-07T10:59:24;2.63;;;2.43;;
1178;SDS011;578;48.408;10.004;2022-12-07T11:02:17;4.90;;;2.43;;
1178;SDS011;578;48.408;10.004;2022-12-07T11:04:55;4.10;;;2.40;;
1178;SDS011;578;48.408;10.004;2022-12-07T11:07:29;5.73;;;2.77;;
1178;SDS011;578;48.408;10.004;2022-12-07T11:10:07;5.23;;;2.90;;
1178;SDS011;578;48.408;10.004;2022-12-07T11:12:44;3.30;;;2.30;;
1178;SDS011;578;48.408;10.004;2022-12-07T11:15:21;2.60;;;2.13;;
1178;SDS011;578;48.408;10.004;2022-12-07T11:17:54;5.93;;;2.67;;
1178;SDS011;578;48.408;10.004;2022-12-07T11:20:34;3.27;;;2.23;;
1178;SDS011;578;48.408;10.004;2022-12-07T11:23:11;4.83;;;2.20;;
1178;SDS011;578;48.408;10.004;2022-12-07T11:25:47;5.00;;;2.20;;
1178;SDS011;578;48.408;10.004;2022-12-07T11:28:22;2.93;;;2.03;;
1178;SDS011;578;48.408;10.004;2022-12-07T11:31:01;3.43;;;2.43;;
1178;SDS011;578;48.408;10.004;2022-12-07T11:33:40;3.90;;;2.00;;
1178;SDS011;578;48.408;10.004;2022-12-07T11:36:15;5.90;;;2.47;;
1178;SDS011;578;48.408;10.004;2022-12-07T11:38:56;4.40;;;2.93;;
1178;SDS011;578;48.408;10.004;2022-12-07T11:41:27;2.50;;;2.10;;
1178;SDS011;578;48.408;10.004;2022-12-07T11:43:58;3.47;;;2.33;;
1178;SDS011;578;48.408;10.004;2022-12-07T11:46:45;2.30;;;1.80;;
1178;SDS011;578;48.408;10.004;2022-12-07T11:49:21;2.57;;;2.17;;
1178;SDS011;578;48.408;10.004;2022-12-07T11:51:54;2.60;;;2.10;;
1178;SDS011;578;48.408;10.004;2022-12-07T11:54:25;2.83;;;1.90;;
1178;SDS011;578;48.408;10.004;2022-12-07T11:56:56;3.10;;;2.10;;
1178;SDS011;578;48.408;10.004;2022-12-07T11:59:30;2.90;;;2.10;;
1178;SDS011;578;48.408;10.004;2022-12-07T12:02:02;3.30;;;2.30;;
1178;SDS011;578;48.408;10.004;2022-12-07T12:04:44;3.30;;;2.73;;
1178;SDS011;578;48.408;10.004;2022-12-07T12:07:20;5.50;;;2.30;;
1178;SDS011;578;48.408;10.004;2022-12-07T12:09:49;3.77;;;1.80;;
1178;SDS011;578;48.408;10.004;2022-12-07T12:12:23;3.00;;;2.43;;
1178;SDS011;578;48.408;10.004;2022-12-07T12:15:05;2.70;;;2.20;;
1178;SDS011;578;48.408;10.004;2022-12-07T12:18:01;2.83;;;2.00;;
1178;SDS011;578;48.408;10.004;2022-12-07T12:20:49;3.10;;;1.90;;
1178;SDS011;578;48.408;10.004;2022-12-07T12:23:18;4.50;;;2.80;;
1178;SDS011;578;48.408;10.004;2022-12-07T12:25:48;3.50;;;2.20;;
1178;SDS011;578;48.408;10.004;2022-12-07T12:28:19;2.10;;;1.90;;
1178;SDS011;578;48.408;10.004;2022-12-07T12:31:03;2.77;;;2.00;;
1178;SDS011;578;48.408;10.004;2022-12-07T12:33:31;2.60;;;2.10;;
1178;SDS011;578;48.408;10.004;2022-12-07T12:36:18;3.40;;;2.50;;
1178;SDS011;578;48.408;10.004;2022-12-07T12:38:49;2.13;;;1.83;;
1178;SDS011;578;48.408;10.004;2022-12-07T12:47:52;2.07;;;1.60;;
1178;SDS011;578;48.408;10.004;2022-12-07T12:50:22;3.07;;;1.90;;
1178;SDS011;578;48.408;10.004;2022-12-07T12:52:53;2.30;;;1.60;;
1178;SDS011;578;48.408;10.004;2022-12-07T12:58:38;2.63;;;2.17;;
1178;SDS011;578;48.408;10.004;2022-12-07T13:04:18;3.77;;;2.20;;
1178;SDS011;578;48.408;10.004;2022-12-07T13:06:57;3.00;;;2.30;;
1178;SDS011;578;48.408;10.004;2022-12-07T13:09:26;2.80;;;1.77;;
1178;SDS011;578;48.408;10.004;2022-12-07T13:11:56;2.90;;;1.90;;
1178;SDS011;578;48.408;10.004;2022-12-07T13:14:41;1.73;;;1.30;;
1178;SDS011;578;48.408;10.004;2022-12-07T13:23:12;2.93;;;2.00;;
1178;SDS011;578;48.408;10.004;2022-12-07T13:25:46;2.60;;;1.73;;
1178;SDS011;578;48.408;10.004;2022-12-07T13:28:18;2.73;;;1.73;;
1178;SDS011;578;48.408;10.004;2022-12-07T13:30:46;2.57;;;1.90;;
1178;SDS011;578;48.408;10.004;2022-12-07T13:33:19;5.00;;;2.20;;
1178;SDS011;578;48.408;10.004;2022-12-07T13:35:46;2.80;;;2.30;;
1178;SDS011;578;48.408;10.004;2022-12-07T13:38:19;3.93;;;1.63;;
1178;SDS011;578;48.408;10.004;2022-12-07T13:43:45;6.28;;;1.98;;
1178;SDS011;578;48.408;10.004;2022-12-07T13:46:15;3.40;;;1.77;;
1178;SDS011;578;48.408;10.004;2022-12-07T13:48:44;2.57;;;1.83;;
1178;SDS011;578;48.408;10.004;2022-12-07T13:51:17;3.00;;;1.63;;
1178;SDS011;578;48.408;10.004;2022-12-07T13:53:46;5.97;;;2.07;;
1178;SDS011;578;48.408;10.004;2022-12-07T13:56:13;3.10;;;2.20;;
1178;SDS011;578;48.408;10.004;2022-12-07T13:58:42;2.40;;;1.80;;
1178;SDS011;578;48.408;10.004;2022-12-07T14:01:09;2.10;;;1.57;;
1178;SDS011;578;48.408;10.004;2022-12-07T14:03:38;4.57;;;2.10;;
1178;SDS011;578;48.408;10.004;2022-12-07T14:09:05;2.43;;;1.90;;
1178;SDS011;578;48.408;10.004;2022-12-07T14:11:42;2.42;;;1.77;;
1178;SDS011;578;48.408;10.004;2022-12-07T14:14:11;2.85;;;1.52;;
1178;SDS011;578;48.408;10.004;2022-12-07T14:16:54;1.92;;;1.27;;
1178;SDS011;578;48.408;10.004;2022-12-07T14:22:22;2.20;;;1.60;;
1178;SDS011;578;48.408;10.004;2022-12-07T14:25:13;3.35;;;1.70;;
1178;SDS011;578;48.408;10.004;2022-12-07T14:27:54;1.53;;;1.00;;
1178;SDS011;578;48.408;10.004;2022-12-07T14:30:35;3.30;;;1.67;;
1178;SDS011;578;48.408;10.004;2022-12-07T14:33:13;5.28;;;1.80;;
1178;SDS011;578;48.408;10.004;2022-12-07T14:35:47;2.30;;;1.40;;
1178;SDS011;578;48.408;10.004;2022-12-07T14:38:23;2.33;;;1.40;;
1178;SDS011;578;48.408;10.004;2022-12-07T14:40:55;3.07;;;2.23;;
1178;SDS011;578;48.408;10.004;2022-12-07T14:43:44;4.27;;;2.40;;
1178;SDS011;578;48.408;10.004;2022-12-07T14:46:12;4.83;;;2.10;;
1178;SDS011;578;48.408;10.004;2022-12-07T14:48:38;3.13;;;1.97;;
1178;SDS011;578;48.408;10.004;2022-12-07T14:51:07;2.40;;;1.80;;
1178;SDS011;578;48.408;10.004;2022-12-07T14:53:39;2.97;;;1.90;;
1178;SDS011;578;48.408;10.004;2022-12-07T14:56:07;3.53;;;1.60;;
1178;SDS011;578;48.408;10.004;2022-12-07T14:58:34;2.60;;;1.87;;
1178;SDS011;578;48.408;10.004;2022-12-07T15:01:01;3.67;;;2.23;;
1178;SDS011;578;48.408;10.004;2022-12-07T15:03:29;2.83;;;1.85;;
1178;SDS011;578;48.408;10.004;2022-12-07T15:05:56;3.47;;;2.17;;
1178;SDS011;578;48.408;10.004;2022-12-07T15:08:23;4.03;;;2.25;;
1178;SDS011;578;48.408;10.004;2022-12-07T15:10:50;3.37;;;1.90;;
1178;SDS011;578;48.408;10.004;2022-12-07T15:13:17;2.72;;;1.48;;
1178;SDS011;578;48.408;10.004;2022-12-07T15:16:01;2.80;;;2.05;;
1178;SDS011;578;48.408;10.004;2022-12-07T15:18:30;6.45;;;1.98;;
1178;SDS011;578;48.408;10.004;2022-12-07T15:20:56;2.75;;;1.77;;
1178;SDS011;578;48.408;10.004;2022-12-07T15:23:23;4.20;;;1.83;;
1178;SDS011;578;48.408;10.004;2022-12-07T15:25:50;4.40;;;2.85;;
1178;SDS011;578;48.408;10.004;2022-12-07T15:28:17;3.88;;;2.30;;
1178;SDS011;578;48.408;10.004;2022-12-07T15:30:43;2.88;;;2.10;;
1178;SDS011;578;48.408;10.004;2022-12-07T15:33:11;3.42;;;1.92;;
1178;SDS011;578;48.408;10.004;2022-12-07T15:35:40;5.40;;;2.50;;
1178;SDS011;578;48.408;10.004;2022-12-07T15:38:07;8.73;;;2.15;;
1178;SDS011;578;48.408;10.004;2022-12-07T15:40:34;3.13;;;1.55;;
1178;SDS011;578;48.408;10.004;2022-12-07T15:43:01;5.53;;;1.58;;
1178;SDS011;578;48.408;10.004;2022-12-07T15:45:29;3.50;;;1.90;;
1178;SDS011;578;48.408;10.004;2022-12-07T15:47:54;2.93;;;1.70;;
1178;SDS011;578;48.408;10.004;2022-12-07T15:50:21;5.22;;;2.40;;
1178;SDS011;578;48.408;10.004;2022-12-07T15:52:49;3.13;;;1.80;;
1178;SDS011;578;48.408;10.004;2022-12-07T15:55:16;3.72;;;2.08;;
1178;SDS011;578;48.408;10.004;2022-12-07T15:57:43;3.90;;;1.90;;
1178;SDS011;578;48.408;10.004;2022-12-07T16:00:10;5.03;;;2.80;;
1178;SDS011;578;48.408;10.004;2022-12-07T16:02:38;4.03;;;2.45;;